createdAt,value
2022-08-25T00:00:17.102Z,1002.8
2022-08-25T00:01:33.380Z,1002.8
2022-08-25T00:02:49.689Z,1002.8
2022-08-25T00:04:05.973Z,1002.9
2022-08-25T00:05:22.276Z,1002.9
2022-08-25T00:06:38.562Z,1002.9
2022-08-25T00:09:11.142Z,1002.9
2022-08-25T00:10:27.440Z,1002.9
2022-08-25T00:11:43.743Z,1002.8
2022-08-25T00:12:59.054Z,1002.8
2022-08-25T00:14:15.350Z,1002.9
2022-08-25T00:15:31.629Z,1002.8
2022-08-25T00:16:47.927Z,1002.9
2022-08-25T00:18:04.230Z,1002.8
2022-08-25T00:19:20.512Z,1002.8
2022-08-25T00:20:36.822Z,1002.8
2022-08-25T00:21:53.105Z,1002.8
2022-08-25T00:23:08.429Z,1002.8
2022-08-25T00:24:24.721Z,1002.9
2022-08-25T00:25:40.027Z,1002.9
2022-08-25T00:26:56.331Z,1002.9
2022-08-25T00:28:12.615Z,1002.9
2022-08-25T00:29:28.919Z,1002.9
2022-08-25T00:30:45.201Z,1002.9
2022-08-25T00:32:01.500Z,1002.9
2022-08-25T00:33:17.789Z,1002.8
2022-08-25T00:34:34.085Z,1002.8
2022-08-25T00:35:50.372Z,1002.9
2022-08-25T00:37:06.679Z,1002.9
2022-08-25T00:38:22.969Z,1002.9
2022-08-25T00:39:39.269Z,1002.8
2022-08-25T00:40:55.561Z,1002.9
2022-08-25T00:42:10.872Z,1002.8
2022-08-25T00:43:27.167Z,1002.8
2022-08-25T00:44:43.463Z,1002.8
2022-08-25T00:45:59.759Z,1002.8
2022-08-25T00:47:16.056Z,1002.8
2022-08-25T00:48:32.331Z,1002.8
2022-08-25T00:49:48.632Z,1002.8
2022-08-25T00:51:04.916Z,1002.8
2022-08-25T00:52:21.209Z,1002.8
2022-08-25T00:53:37.520Z,1002.8
2022-08-25T00:54:53.807Z,1002.8
2022-08-25T00:56:10.102Z,1002.8
2022-08-25T00:57:26.405Z,1002.9
2022-08-25T00:58:41.704Z,1002.9
2022-08-25T00:59:57.995Z,1002.9
2022-08-25T01:01:14.284Z,1002.9
2022-08-25T01:02:30.592Z,1002.9
2022-08-25T01:03:46.875Z,1002.9
2022-08-25T01:05:03.167Z,1002.9
2022-08-25T01:06:19.476Z,1002.9
2022-08-25T01:07:35.758Z,1002.9
2022-08-25T01:08:52.059Z,1002.9
2022-08-25T01:10:08.360Z,1002.8
2022-08-25T01:11:24.640Z,1002.8
2022-08-25T01:12:40.930Z,1002.8
2022-08-25T01:13:57.236Z,1002.8
2022-08-25T01:15:12.547Z,1002.8
2022-08-25T01:16:28.844Z,1002.8
2022-08-25T01:17:45.126Z,1002.7
2022-08-25T01:19:01.421Z,1002.8
2022-08-25T01:20:17.717Z,1002.8
2022-08-25T01:21:34.013Z,1002.7
2022-08-25T01:22:50.319Z,1002.7
2022-08-25T01:24:06.602Z,1002.7
2022-08-25T01:25:22.898Z,1002.6
2022-08-25T01:26:39.198Z,1002.6
2022-08-25T01:27:55.481Z,1002.6
2022-08-25T01:29:11.786Z,1002.6
2022-08-25T01:30:28.065Z,1002.6
2022-08-25T01:32:59.685Z,1002.6
2022-08-25T01:34:15.980Z,1002.6
2022-08-25T01:35:32.265Z,1002.6
2022-08-25T01:36:48.553Z,1002.6
2022-08-25T01:38:04.862Z,1002.6
2022-08-25T01:39:21.141Z,1002.6
2022-08-25T01:40:37.438Z,1002.6
2022-08-25T01:41:53.744Z,1002.6
2022-08-25T01:43:10.022Z,1002.6
2022-08-25T01:44:26.326Z,1002.6
2022-08-25T01:45:42.621Z,1002.6
2022-08-25T01:46:58.907Z,1002.6
2022-08-25T01:48:14.217Z,1002.5
2022-08-25T01:50:46.815Z,1002.5
2022-08-25T01:52:03.103Z,1002.6
2022-08-25T01:53:19.409Z,1002.6
2022-08-25T01:54:35.711Z,1002.6
2022-08-25T01:55:51.982Z,1002.7
2022-08-25T01:57:08.284Z,1002.6
2022-08-25T01:58:24.577Z,1002.6
2022-08-25T01:59:40.866Z,1002.6
2022-08-25T02:00:57.160Z,1002.6
2022-08-25T02:03:29.752Z,1002.6
2022-08-25T02:06:01.350Z,1002.6
2022-08-25T02:07:16.682Z,1002.5
2022-08-25T02:08:31.986Z,1002.5
2022-08-25T02:09:48.286Z,1002.5
2022-08-25T02:11:04.574Z,1002.5
2022-08-25T02:12:20.868Z,1002.5
2022-08-25T02:13:37.161Z,1002.5
2022-08-25T02:14:53.459Z,1002.5
2022-08-25T02:16:09.746Z,1002.6
2022-08-25T02:17:26.034Z,1002.5
2022-08-25T02:18:42.350Z,1002.5
2022-08-25T02:19:58.627Z,1002.5
2022-08-25T02:21:13.952Z,1002.5
2022-08-25T02:22:29.261Z,1002.5
2022-08-25T02:23:45.550Z,1002.5
2022-08-25T02:26:18.147Z,1002.5
2022-08-25T02:27:33.459Z,1002.5
2022-08-25T02:28:49.753Z,1002.5
2022-08-25T02:30:06.045Z,1002.5
2022-08-25T02:31:22.339Z,1002.5
2022-08-25T02:33:54.936Z,1002.4
2022-08-25T02:35:11.229Z,1002.4
2022-08-25T02:36:27.522Z,1002.4
2022-08-25T02:37:42.839Z,1002.4
2022-08-25T02:38:58.137Z,1002.4
2022-08-25T02:41:30.720Z,1002.4
2022-08-25T02:42:47.022Z,1002.4
2022-08-25T02:44:03.311Z,1002.4
2022-08-25T02:45:19.609Z,1002.4
2022-08-25T02:46:35.902Z,1002.3
2022-08-25T02:47:52.205Z,1002.3
2022-08-25T02:49:08.501Z,1002.3
2022-08-25T02:50:24.788Z,1002.3
2022-08-25T02:51:41.093Z,1002.3
2022-08-25T02:52:57.385Z,1002.3
2022-08-25T02:54:13.664Z,1002.3
2022-08-25T02:55:28.976Z,1002.3
2022-08-25T02:56:45.280Z,1002.3
2022-08-25T02:58:01.574Z,1002.2
2022-08-25T02:59:17.871Z,1002.3
2022-08-25T03:00:34.154Z,1002.3
2022-08-25T03:01:50.447Z,1002.3
2022-08-25T03:03:06.749Z,1002.3
2022-08-25T03:04:23.039Z,1002.3
2022-08-25T03:05:38.347Z,1002.3
2022-08-25T03:06:53.672Z,1002.4
2022-08-25T03:09:26.265Z,1002.3
2022-08-25T03:11:58.838Z,1002.4
2022-08-25T03:13:15.131Z,1002.3
2022-08-25T03:14:31.421Z,1002.4
2022-08-25T03:17:04.023Z,1002.4
2022-08-25T03:19:36.600Z,1002.4
2022-08-25T03:20:52.910Z,1002.4
2022-08-25T03:22:09.193Z,1002.4
2022-08-25T03:23:24.510Z,1002.3
2022-08-25T03:24:39.829Z,1002.3
2022-08-25T03:25:55.129Z,1002.4
2022-08-25T03:27:11.419Z,1002.3
2022-08-25T03:28:27.722Z,1002.3
2022-08-25T03:29:43.966Z,1002.3
2022-08-25T03:31:00.265Z,1002.4
2022-08-25T03:32:16.541Z,1002.3
2022-08-25T03:33:32.810Z,1002.4
2022-08-25T03:34:49.047Z,1002.4
2022-08-25T03:36:05.274Z,1002.3
2022-08-25T03:37:21.586Z,1002.4
2022-08-25T03:38:36.847Z,1002.4
2022-08-25T03:39:52.101Z,1002.3
2022-08-25T03:41:08.338Z,1002.3
2022-08-25T03:42:24.584Z,1002.3
2022-08-25T03:43:40.827Z,1002.3
2022-08-25T03:44:57.076Z,1002.3
2022-08-25T03:46:13.303Z,1002.3
2022-08-25T03:47:29.548Z,1002.3
2022-08-25T03:50:02.037Z,1002.2
2022-08-25T03:51:18.264Z,1002.2
2022-08-25T03:52:34.499Z,1002.2
2022-08-25T03:53:50.746Z,1002.3
2022-08-25T03:55:06.987Z,1002.3
2022-08-25T03:56:22.241Z,1002.2
2022-08-25T03:57:38.474Z,1002.3
2022-08-25T03:58:54.716Z,1002.2
2022-08-25T04:00:10.972Z,1002.3
2022-08-25T04:01:27.211Z,1002.3
2022-08-25T04:02:43.447Z,1002.3
2022-08-25T04:03:59.685Z,1002.3
2022-08-25T04:05:15.918Z,1002.3
2022-08-25T04:06:32.155Z,1002.3
2022-08-25T04:07:48.407Z,1002.2
2022-08-25T04:09:04.645Z,1002.2
2022-08-25T04:10:20.894Z,1002.2
2022-08-25T04:11:37.130Z,1002.2
2022-08-25T04:12:52.374Z,1002.2
2022-08-25T04:14:08.627Z,1002.2
2022-08-25T04:16:41.095Z,1002.2
2022-08-25T04:17:57.334Z,1002.2
2022-08-25T04:20:29.815Z,1002.1
2022-08-25T04:21:46.067Z,1002.1
2022-08-25T04:23:02.310Z,1002.2
2022-08-25T04:24:18.545Z,1002.2
2022-08-25T04:25:34.779Z,1002.1
2022-08-25T04:26:51.030Z,1002.1
2022-08-25T04:28:07.273Z,1002.2
2022-08-25T04:29:22.525Z,1002.2
2022-08-25T04:30:38.761Z,1002.1
2022-08-25T04:31:55.005Z,1002.2
2022-08-25T04:33:11.229Z,1002.3
2022-08-25T04:34:27.489Z,1002.2
2022-08-25T04:35:43.725Z,1002.2
2022-08-25T04:36:59.952Z,1002.3
2022-08-25T04:38:16.211Z,1002.2
2022-08-25T04:39:32.436Z,1002.3
2022-08-25T04:40:48.679Z,1002.3
2022-08-25T04:43:21.155Z,1002.2
2022-08-25T04:45:53.638Z,1002.2
2022-08-25T04:47:08.902Z,1002.3
2022-08-25T04:48:24.162Z,1002.3
2022-08-25T04:49:40.388Z,1002.3
2022-08-25T04:50:56.635Z,1002.3
2022-08-25T04:52:12.876Z,1002.3
2022-08-25T04:53:29.125Z,1002.3
2022-08-25T04:54:45.360Z,1002.3
2022-08-25T04:56:01.607Z,1002.3
2022-08-25T04:58:34.082Z,1002.3
2022-08-25T05:01:06.563Z,1002.3
2022-08-25T05:02:22.790Z,1002.3
2022-08-25T05:03:38.073Z,1002.4
2022-08-25T05:04:53.312Z,1002.4
2022-08-25T05:06:09.552Z,1002.3
2022-08-25T05:07:25.790Z,1002.4
2022-08-25T05:08:42.042Z,1002.3
2022-08-25T05:09:58.272Z,1002.4
2022-08-25T05:11:14.520Z,1002.3
2022-08-25T05:12:30.763Z,1002.3
2022-08-25T05:13:47.001Z,1002.3
2022-08-25T05:15:03.246Z,1002.3
2022-08-25T05:16:19.474Z,1002.3
2022-08-25T05:17:34.740Z,1002.2
2022-08-25T05:18:49.989Z,1002.3
2022-08-25T05:20:06.243Z,1002.3
2022-08-25T05:21:22.475Z,1002.3
2022-08-25T05:22:38.711Z,1002.3
2022-08-25T05:23:54.963Z,1002.2
2022-08-25T05:25:11.196Z,1002.2
2022-08-25T05:26:27.441Z,1002.3
2022-08-25T05:27:43.681Z,1002.3
2022-08-25T05:28:59.922Z,1002.2
2022-08-25T05:30:16.153Z,1002.2
2022-08-25T05:31:31.424Z,1002.2
2022-08-25T05:32:46.668Z,1002.1
2022-08-25T05:34:02.919Z,1002.2
2022-08-25T05:36:35.394Z,1002.1
2022-08-25T05:37:51.646Z,1002.1
2022-08-25T05:39:07.880Z,1002.1
2022-08-25T05:40:24.108Z,1002.1
2022-08-25T05:41:40.365Z,1002.1
2022-08-25T05:44:12.842Z,1002
2022-08-25T05:45:29.081Z,1002.1
2022-08-25T05:46:45.326Z,1002.1
2022-08-25T05:48:00.586Z,1002.1
2022-08-25T05:49:15.829Z,1002.1
2022-08-25T05:50:32.073Z,1002.1
2022-08-25T05:51:48.325Z,1002.1
2022-08-25T05:53:04.557Z,1002.2
2022-08-25T05:54:20.791Z,1002.2
2022-08-25T05:55:37.045Z,1002.1
2022-08-25T05:56:53.283Z,1002.2
2022-08-25T05:58:09.521Z,1002.2
2022-08-25T05:59:25.764Z,1002.2
2022-08-25T06:00:42.008Z,1002.2
2022-08-25T06:01:57.262Z,1002.2
2022-08-25T06:03:12.525Z,1002.2
2022-08-25T06:04:28.762Z,1002.2
2022-08-25T06:05:44.994Z,1002.2
2022-08-25T06:07:01.234Z,1002.2
2022-08-25T06:08:17.481Z,1002.2
2022-08-25T06:09:33.712Z,1002.1
2022-08-25T06:10:49.957Z,1002.1
2022-08-25T06:12:06.189Z,1002.1
2022-08-25T06:13:22.433Z,1002.2
2022-08-25T06:14:38.672Z,1002.2
2022-08-25T06:15:54.920Z,1002.2
2022-08-25T06:17:11.163Z,1002.2
2022-08-25T06:18:27.388Z,1002.2
2022-08-25T06:19:42.660Z,1002.2
2022-08-25T06:20:58.898Z,1002.2
2022-08-25T06:22:15.126Z,1002.2
2022-08-25T06:23:31.374Z,1002.2
2022-08-25T06:24:47.615Z,1002.2
2022-08-25T06:26:03.845Z,1002.1
2022-08-25T06:27:20.104Z,1002.1
2022-08-25T06:28:36.331Z,1002.2
2022-08-25T06:29:52.584Z,1002.1
2022-08-25T06:31:08.813Z,1002.2
2022-08-25T06:32:25.059Z,1002.2
2022-08-25T06:33:41.294Z,1002.2
2022-08-25T06:34:57.544Z,1002.2
2022-08-25T06:37:29.036Z,1002.2
2022-08-25T06:38:45.276Z,1002.2
2022-08-25T06:40:01.516Z,1002.2
2022-08-25T06:41:17.741Z,1002.2
2022-08-25T06:42:33.007Z,1002.2
2022-08-25T06:45:05.497Z,1002.3
2022-08-25T06:46:21.735Z,1002.2
2022-08-25T06:47:37.969Z,1002.2
2022-08-25T06:48:54.218Z,1002.2
2022-08-25T06:50:10.461Z,1002.2
2022-08-25T06:51:26.692Z,1002.2
2022-08-25T06:52:42.935Z,1002.2
2022-08-25T06:53:59.182Z,1002.1
2022-08-25T06:55:15.418Z,1002
2022-08-25T06:56:31.648Z,1002
2022-08-25T06:57:47.893Z,1002.1
2022-08-25T06:59:03.140Z,1002
2022-08-25T07:00:19.390Z,1002
2022-08-25T07:01:35.631Z,1002.1
2022-08-25T07:02:51.868Z,1002
2022-08-25T07:05:24.359Z,1002
2022-08-25T07:06:40.583Z,1002
2022-08-25T07:07:56.826Z,1002.1
2022-08-25T07:09:13.082Z,1002.1
2022-08-25T07:10:29.308Z,1002.1
2022-08-25T07:11:45.554Z,1002
2022-08-25T07:13:01.788Z,1002
2022-08-25T07:14:18.040Z,1002.1
2022-08-25T07:15:33.294Z,1002
2022-08-25T07:16:49.532Z,1002.1
2022-08-25T07:18:05.779Z,1002
2022-08-25T07:19:22.009Z,1002
2022-08-25T07:20:38.250Z,1002.1
2022-08-25T07:23:10.730Z,1002.1
2022-08-25T07:25:43.217Z,1002.1
2022-08-25T07:26:58.479Z,1002.1
2022-08-25T07:28:13.718Z,1002.1
2022-08-25T07:29:29.975Z,1002.1
2022-08-25T07:30:46.213Z,1002.1
2022-08-25T07:32:02.451Z,1002.1
2022-08-25T07:33:18.691Z,1002.1
2022-08-25T07:34:34.926Z,1002.1
2022-08-25T07:35:51.163Z,1002.1
2022-08-25T07:37:07.414Z,1002.2
2022-08-25T07:38:23.647Z,1002.1
2022-08-25T07:39:39.883Z,1002.1
2022-08-25T07:40:55.142Z,1002.1
2022-08-25T07:42:10.405Z,1002.1
2022-08-25T07:43:26.641Z,1002.1
2022-08-25T07:45:59.122Z,1002.2
2022-08-25T07:47:15.376Z,1002.1
2022-08-25T07:48:31.599Z,1002.2
2022-08-25T07:49:47.841Z,1002.2
2022-08-25T07:51:04.088Z,1002.2
2022-08-25T07:52:20.318Z,1002.1
2022-08-25T07:53:36.559Z,1002.2
2022-08-25T07:54:52.813Z,1002.1
2022-08-25T07:56:09.038Z,1002.1
2022-08-25T07:57:25.278Z,1002.1
2022-08-25T07:58:40.548Z,1002.1
2022-08-25T07:59:56.780Z,1002.1
2022-08-25T08:01:13.024Z,1002.1
2022-08-25T08:02:29.266Z,1002.1
2022-08-25T08:03:45.509Z,1002.1
2022-08-25T08:05:01.751Z,1002.1
2022-08-25T08:06:17.980Z,1002.1
2022-08-25T08:07:34.222Z,1002.1
2022-08-25T08:08:50.463Z,1002.1
2022-08-25T08:10:06.707Z,1002
2022-08-25T08:11:22.945Z,1002
2022-08-25T08:13:55.414Z,1002
2022-08-25T08:15:10.687Z,1001.9
2022-08-25T08:16:26.914Z,1002
2022-08-25T08:17:43.158Z,1002
2022-08-25T08:18:59.409Z,1002
2022-08-25T08:20:15.643Z,1002
2022-08-25T08:21:31.876Z,1002
2022-08-25T08:22:48.118Z,1002
2022-08-25T08:24:04.366Z,1002
2022-08-25T08:25:20.606Z,1002
2022-08-25T08:26:36.835Z,1001.9
2022-08-25T08:27:53.071Z,1001.9
2022-08-25T08:29:09.313Z,1001.9
2022-08-25T08:30:25.565Z,1001.8
2022-08-25T08:31:40.828Z,1001.8
2022-08-25T08:32:57.064Z,1001.8
2022-08-25T08:34:13.307Z,1001.8
2022-08-25T08:35:29.539Z,1001.8
2022-08-25T08:36:45.779Z,1001.8
2022-08-25T08:38:02.020Z,1001.8
2022-08-25T08:39:18.257Z,1001.8
2022-08-25T08:40:34.502Z,1001.8
2022-08-25T08:41:50.734Z,1001.7
2022-08-25T08:43:06.975Z,1001.7
2022-08-25T08:44:23.228Z,1001.7
2022-08-25T08:45:39.465Z,1001.6
2022-08-25T08:46:55.699Z,1001.7
2022-08-25T08:48:10.959Z,1001.6
2022-08-25T08:49:27.203Z,1001.6
2022-08-25T08:50:43.446Z,1001.5
2022-08-25T08:51:59.668Z,1001.6
2022-08-25T08:54:32.160Z,1001.5
2022-08-25T08:55:48.389Z,1001.5
2022-08-25T08:57:04.645Z,1001.5
2022-08-25T08:58:20.872Z,1001.5
2022-08-25T08:59:37.110Z,1001.5
2022-08-25T09:00:53.351Z,1001.5
2022-08-25T09:02:09.606Z,1001.4
2022-08-25T09:03:25.828Z,1001.5
2022-08-25T09:04:41.097Z,1001.5
2022-08-25T09:05:57.327Z,1001.5
2022-08-25T09:07:13.581Z,1001.4
2022-08-25T09:08:29.823Z,1001.5
2022-08-25T09:09:46.054Z,1001.5
2022-08-25T09:12:18.536Z,1001.4
2022-08-25T09:13:34.774Z,1001.4
2022-08-25T09:14:51.007Z,1001.4
2022-08-25T09:16:07.249Z,1001.4
2022-08-25T09:17:23.505Z,1001.4
2022-08-25T09:18:39.740Z,1001.4
2022-08-25T09:19:55.976Z,1001.4
2022-08-25T09:21:11.223Z,1001.4
2022-08-25T09:22:27.467Z,1001.4
2022-08-25T09:23:43.706Z,1001.4
2022-08-25T09:24:59.961Z,1001.4
2022-08-25T09:26:16.185Z,1001.4
2022-08-25T09:27:32.438Z,1001.4
2022-08-25T09:28:48.672Z,1001.3
2022-08-25T09:30:04.910Z,1001.2
2022-08-25T09:32:37.388Z,1001.3
2022-08-25T09:33:53.626Z,1001.3
2022-08-25T09:35:09.885Z,1001.3
2022-08-25T09:36:26.111Z,1001.3
2022-08-25T09:37:41.365Z,1001.3
2022-08-25T09:40:13.860Z,1001.3
2022-08-25T09:41:30.091Z,1001.2
2022-08-25T09:42:46.344Z,1001.3
2022-08-25T09:44:02.574Z,1001.3
2022-08-25T09:45:18.822Z,1001.3
2022-08-25T09:46:35.044Z,1001.3
2022-08-25T09:47:51.292Z,1001.3
2022-08-25T09:49:07.528Z,1001.3
2022-08-25T09:50:23.785Z,1001.3
2022-08-25T09:51:40.011Z,1001.3
2022-08-25T09:52:56.264Z,1001.2
2022-08-25T09:55:27.755Z,1001.2
2022-08-25T09:56:43.021Z,1001.2
2022-08-25T09:57:58.271Z,1001.2
2022-08-25T09:59:14.516Z,1001.2
2022-08-25T10:00:30.759Z,1001.1
2022-08-25T10:01:46.999Z,1001.2
2022-08-25T10:03:03.225Z,1001.1
2022-08-25T10:04:19.463Z,1001.1
2022-08-25T10:05:35.713Z,1001.1
2022-08-25T10:06:51.944Z,1001
2022-08-25T10:08:08.188Z,1001.1
2022-08-25T10:09:24.431Z,1001
2022-08-25T10:10:39.689Z,1001
2022-08-25T10:11:54.957Z,1001
2022-08-25T10:13:11.194Z,1000.9
2022-08-25T10:14:27.428Z,1001
2022-08-25T10:15:43.669Z,1001
2022-08-25T10:16:59.906Z,1001
2022-08-25T10:18:16.159Z,1000.9
2022-08-25T10:19:32.401Z,1000.9
2022-08-25T10:20:48.638Z,1000.9
2022-08-25T10:22:04.879Z,1000.9
2022-08-25T10:23:21.120Z,1000.9
2022-08-25T10:24:37.355Z,1000.9
2022-08-25T10:25:53.603Z,1000.8
2022-08-25T10:27:09.835Z,1000.8
2022-08-25T10:28:25.096Z,1000.7
2022-08-25T10:29:41.321Z,1000.6
2022-08-25T10:30:57.564Z,1000.6
2022-08-25T10:32:13.814Z,1000.7
2022-08-25T10:33:30.056Z,1000.6
2022-08-25T10:34:46.284Z,1000.6
2022-08-25T10:36:02.529Z,1000.7
2022-08-25T10:37:18.776Z,1000.6
2022-08-25T10:38:35.003Z,1000.6
2022-08-25T10:41:07.500Z,1000.7
2022-08-25T10:42:23.726Z,1000.6
2022-08-25T10:43:39.967Z,1000.6
2022-08-25T10:44:55.238Z,1000.6
2022-08-25T10:46:11.481Z,1000.6
2022-08-25T10:47:27.707Z,1000.6
2022-08-25T10:48:43.949Z,1000.5
2022-08-25T10:50:00.199Z,1000.5
2022-08-25T10:51:16.440Z,1000.5
2022-08-25T10:52:32.675Z,1000.5
2022-08-25T10:53:48.906Z,1000.5
2022-08-25T10:55:05.161Z,1000.4
2022-08-25T10:56:21.384Z,1000.4
2022-08-25T10:57:37.624Z,1000.4
2022-08-25T10:58:52.896Z,1000.3
2022-08-25T11:00:09.140Z,1000.4
2022-08-25T11:01:25.375Z,1000.4
2022-08-25T11:02:41.611Z,1000.5
2022-08-25T11:03:57.849Z,1000.4
2022-08-25T11:05:14.099Z,1000.3
2022-08-25T11:06:30.339Z,1000.3
2022-08-25T11:07:46.571Z,1000.4
2022-08-25T11:09:02.823Z,1000.3
2022-08-25T11:11:35.306Z,1000.3
2022-08-25T11:12:51.536Z,1000.2
2022-08-25T11:14:07.781Z,1000.2
2022-08-25T11:15:23.040Z,1000.2
2022-08-25T11:17:55.515Z,1000.1
2022-08-25T11:19:11.757Z,1000.2
2022-08-25T11:20:28.002Z,1000.2
2022-08-25T11:21:44.232Z,1000.2
2022-08-25T11:23:00.478Z,1000.2
2022-08-25T11:24:16.720Z,1000.1
2022-08-25T11:25:32.955Z,1000.1
2022-08-25T11:26:49.191Z,1000.1
2022-08-25T11:29:21.673Z,1000
2022-08-25T11:30:36.930Z,1000.1
2022-08-25T11:31:52.193Z,1000.1
2022-08-25T11:33:08.433Z,1000.1
2022-08-25T11:34:24.676Z,1000
2022-08-25T11:35:40.909Z,1000.1
2022-08-25T11:36:57.160Z,1000
2022-08-25T11:38:13.404Z,1000
2022-08-25T11:39:29.633Z,1000
2022-08-25T11:40:45.871Z,1000
2022-08-25T11:42:02.118Z,1000
2022-08-25T11:43:18.368Z,1000
2022-08-25T11:44:33.616Z,999.9
2022-08-25T11:45:48.885Z,999.9
2022-08-25T11:47:05.107Z,999.9
2022-08-25T11:48:21.365Z,999.9
2022-08-25T11:49:37.597Z,999.8
2022-08-25T11:50:53.845Z,999.7
2022-08-25T11:52:10.072Z,999.8
2022-08-25T11:53:26.323Z,999.9
2022-08-25T11:54:42.564Z,999.9
2022-08-25T11:55:58.798Z,999.9
2022-08-25T11:57:15.045Z,999.9
2022-08-25T11:58:31.284Z,999.8
2022-08-25T11:59:47.511Z,999.8
2022-08-25T12:01:03.755Z,999.8
2022-08-25T12:02:19.017Z,999.8
2022-08-25T12:03:35.261Z,999.8
2022-08-25T12:04:51.500Z,999.9
2022-08-25T12:06:07.737Z,999.8
2022-08-25T12:07:23.976Z,999.8
2022-08-25T12:08:40.228Z,999.7
2022-08-25T12:09:56.470Z,999.7
2022-08-25T12:12:28.950Z,999.7
2022-08-25T12:13:45.172Z,999.8
2022-08-25T12:15:01.415Z,999.8
2022-08-25T12:16:17.670Z,999.8
2022-08-25T12:17:33.902Z,999.7
2022-08-25T12:18:49.159Z,999.8
2022-08-25T12:20:05.403Z,999.7
2022-08-25T12:21:21.649Z,999.7
2022-08-25T12:22:37.878Z,999.6
2022-08-25T12:23:54.118Z,999.6
2022-08-25T12:25:10.368Z,999.6
2022-08-25T12:26:26.607Z,999.6
2022-08-25T12:27:42.835Z,999.5
2022-08-25T12:28:59.091Z,999.5
2022-08-25T12:30:15.321Z,999.5
2022-08-25T12:31:31.570Z,999.6
2022-08-25T12:32:47.799Z,999.6
2022-08-25T12:35:20.279Z,999.5
2022-08-25T12:36:35.541Z,999.5
2022-08-25T12:37:51.784Z,999.5
2022-08-25T12:39:08.016Z,999.5
2022-08-25T12:40:24.257Z,999.5
2022-08-25T12:42:56.747Z,999.4
2022-08-25T12:44:12.988Z,999.4
2022-08-25T12:45:29.215Z,999.4
2022-08-25T12:46:45.465Z,999.5
2022-08-25T12:48:01.707Z,999.5
2022-08-25T12:49:17.937Z,999.4
2022-08-25T12:50:34.180Z,999.4
2022-08-25T12:51:50.418Z,999.4
2022-08-25T12:53:05.686Z,999.4
2022-08-25T12:54:21.920Z,999.4
2022-08-25T12:55:38.155Z,999.3
2022-08-25T12:56:54.395Z,999.3
2022-08-25T12:58:10.644Z,999.4
2022-08-25T12:59:26.888Z,999.4
2022-08-25T13:00:43.126Z,999.4
2022-08-25T13:01:59.356Z,999.4
2022-08-25T13:03:15.607Z,999.4
2022-08-25T13:04:31.840Z,999.4
2022-08-25T13:05:48.086Z,999.4
2022-08-25T13:07:04.335Z,999.3
2022-08-25T13:08:20.563Z,999.3
2022-08-25T13:09:35.833Z,999.2
2022-08-25T13:10:52.064Z,999.2
2022-08-25T13:13:24.545Z,999.2
2022-08-25T13:14:40.777Z,999.2
2022-08-25T13:15:57.016Z,999.2
2022-08-25T13:17:13.262Z,999.1
2022-08-25T13:18:29.513Z,999.2
2022-08-25T13:19:45.743Z,999.2
2022-08-25T13:21:01.992Z,999.2
2022-08-25T13:22:18.238Z,999.2
2022-08-25T13:23:34.461Z,999.2
2022-08-25T13:24:50.713Z,999.2
2022-08-25T13:26:05.958Z,999.2
2022-08-25T13:27:22.198Z,999.1
2022-08-25T13:28:38.442Z,999.1
2022-08-25T13:29:54.696Z,999.1
2022-08-25T13:31:10.938Z,999.1
2022-08-25T13:32:27.165Z,999.1
2022-08-25T13:33:43.407Z,999.1
2022-08-25T13:34:59.653Z,999
2022-08-25T13:36:15.886Z,999
2022-08-25T13:37:32.139Z,999
2022-08-25T13:38:48.000Z,998.9
2022-08-25T13:40:04.602Z,998.9
2022-08-25T13:41:20.845Z,999
2022-08-25T13:42:36.102Z,998.9
2022-08-25T13:43:52.353Z,998.9
2022-08-25T13:46:24.829Z,998.9
2022-08-25T13:47:41.075Z,998.9
2022-08-25T13:50:13.555Z,998.8
2022-08-25T13:51:29.800Z,998.8
2022-08-25T13:52:46.032Z,998.8
2022-08-25T13:54:02.279Z,998.8
2022-08-25T13:55:18.516Z,998.8
2022-08-25T13:56:34.756Z,998.8
2022-08-25T13:57:50.984Z,998.8
2022-08-25T13:59:06.251Z,998.8
2022-08-25T14:00:22.495Z,998.8
2022-08-25T14:01:38.733Z,998.8
2022-08-25T14:02:54.972Z,998.8
2022-08-25T14:04:11.205Z,998.8
2022-08-25T14:05:27.443Z,998.7
2022-08-25T14:06:43.691Z,998.7
2022-08-25T14:07:59.925Z,998.8
2022-08-25T14:09:16.183Z,998.7
2022-08-25T14:10:32.414Z,998.6
2022-08-25T14:11:48.662Z,998.6
2022-08-25T14:14:21.128Z,998.5
2022-08-25T14:15:36.390Z,998.5
2022-08-25T14:16:52.628Z,998.5
2022-08-25T14:18:08.875Z,998.5
2022-08-25T14:19:25.110Z,998.5
2022-08-25T14:21:57.587Z,998.6
2022-08-25T14:23:13.839Z,998.6
2022-08-25T14:24:30.080Z,998.6
2022-08-25T14:25:46.321Z,998.6
2022-08-25T14:27:02.557Z,998.5
2022-08-25T14:28:18.791Z,998.5
2022-08-25T14:29:35.032Z,998.5
2022-08-25T14:30:51.279Z,998.5
2022-08-25T14:32:06.532Z,998.4
2022-08-25T14:34:39.015Z,998.4
2022-08-25T14:37:10.527Z,998.4
2022-08-25T14:38:25.789Z,998.4
2022-08-25T14:39:41.037Z,998.3
2022-08-25T14:40:57.279Z,998.3
2022-08-25T14:42:13.518Z,998.4
2022-08-25T14:43:29.750Z,998.4
2022-08-25T14:44:45.990Z,998.3
2022-08-25T14:46:02.236Z,998.3
2022-08-25T14:47:18.479Z,998.3
2022-08-25T14:48:34.717Z,998.3
2022-08-25T14:49:50.952Z,998.3
2022-08-25T14:51:07.194Z,998.3
2022-08-25T14:52:22.473Z,998.2
2022-08-25T14:53:37.714Z,998.2
2022-08-25T14:54:53.954Z,998.2
2022-08-25T14:56:10.203Z,998.2
2022-08-25T14:57:26.443Z,998.1
2022-08-25T14:59:58.925Z,998.1
2022-08-25T15:01:15.151Z,998.1
2022-08-25T15:02:31.391Z,998.1
2022-08-25T15:03:47.645Z,998.2
2022-08-25T15:05:03.885Z,998.2
2022-08-25T15:06:20.117Z,998.1
2022-08-25T15:07:36.372Z,998.1
2022-08-25T15:08:52.609Z,998.1
2022-08-25T15:10:07.864Z,998
2022-08-25T15:11:24.107Z,998.1
2022-08-25T15:12:40.347Z,998
2022-08-25T15:13:55.597Z,998
2022-08-25T15:15:11.850Z,998
2022-08-25T15:16:28.082Z,998
2022-08-25T15:17:44.318Z,997.9
2022-08-25T15:19:00.558Z,998
2022-08-25T15:20:16.797Z,997.9
2022-08-25T15:21:33.050Z,997.9
2022-08-25T15:22:49.274Z,997.9
2022-08-25T15:24:05.525Z,997.9
2022-08-25T15:25:21.770Z,997.9
2022-08-25T15:26:38.003Z,997.9
2022-08-25T15:27:54.238Z,997.9
2022-08-25T15:29:10.484Z,997.8
2022-08-25T15:30:25.745Z,997.8
2022-08-25T15:31:41.981Z,997.8
2022-08-25T15:32:58.232Z,997.8
2022-08-25T15:34:14.466Z,997.8
2022-08-25T15:35:30.705Z,997.8
2022-08-25T15:36:46.953Z,997.8
2022-08-25T15:38:03.179Z,997.8
2022-08-25T15:39:19.419Z,997.8
2022-08-25T15:40:35.672Z,997.7
2022-08-25T15:41:51.899Z,997.8
2022-08-25T15:43:08.146Z,997.8
2022-08-25T15:44:24.391Z,997.7
2022-08-25T15:45:40.628Z,997.7
2022-08-25T15:46:55.880Z,997.7
2022-08-25T15:48:12.113Z,997.6
2022-08-25T15:49:28.363Z,997.7
2022-08-25T15:50:44.599Z,997.7
2022-08-25T15:53:17.092Z,997.7
2022-08-25T15:54:33.322Z,997.7
2022-08-25T15:55:49.559Z,997.7
2022-08-25T15:57:05.815Z,997.7
2022-08-25T15:58:22.056Z,997.6
2022-08-25T16:00:54.523Z,997.7
2022-08-25T16:02:10.762Z,997.6
2022-08-25T16:03:26.027Z,997.6
2022-08-25T16:04:42.261Z,997.6
2022-08-25T16:05:58.501Z,997.6
2022-08-25T16:07:14.747Z,997.6
2022-08-25T16:08:30.987Z,997.6
2022-08-25T16:09:47.229Z,997.7
2022-08-25T16:11:03.467Z,997.6
2022-08-25T16:12:19.713Z,997.6
2022-08-25T16:13:35.957Z,997.6
2022-08-25T16:14:52.181Z,997.6
2022-08-25T16:16:08.426Z,997.6
2022-08-25T16:17:24.662Z,997.6
2022-08-25T16:18:40.904Z,997.7
2022-08-25T16:19:56.169Z,997.6
2022-08-25T16:21:12.416Z,997.6
2022-08-25T16:23:44.881Z,997.6
2022-08-25T16:26:17.363Z,997.6
2022-08-25T16:27:32.621Z,997.6
2022-08-25T16:28:47.885Z,997.5
2022-08-25T16:30:04.125Z,997.6
2022-08-25T16:31:20.364Z,997.6
2022-08-25T16:32:36.604Z,997.6
2022-08-25T16:33:52.851Z,997.6
2022-08-25T16:35:09.077Z,997.5
2022-08-25T16:36:25.332Z,997.5
2022-08-25T16:38:57.802Z,997.6
2022-08-25T16:40:14.058Z,997.6
2022-08-25T16:41:30.288Z,997.6
2022-08-25T16:42:46.531Z,997.6
2022-08-25T16:44:02.764Z,997.6
2022-08-25T16:45:18.034Z,997.6
2022-08-25T16:46:34.271Z,997.6
2022-08-25T16:47:50.510Z,997.5
2022-08-25T16:49:06.748Z,997.5
2022-08-25T16:50:22.979Z,997.5
2022-08-25T16:51:39.235Z,997.5
2022-08-25T16:52:55.468Z,997.6
2022-08-25T16:54:11.708Z,997.6
2022-08-25T16:55:26.979Z,997.6
2022-08-25T16:56:42.226Z,997.6
2022-08-25T16:57:58.459Z,997.6
2022-08-25T16:59:14.699Z,997.6
2022-08-25T17:00:30.957Z,997.6
2022-08-25T17:01:47.186Z,997.6
2022-08-25T17:03:03.429Z,997.6
2022-08-25T17:04:19.659Z,997.6
2022-08-25T17:05:35.898Z,997.6
2022-08-25T17:06:52.157Z,997.7
2022-08-25T17:08:08.383Z,997.7
2022-08-25T17:09:24.621Z,997.7
2022-08-25T17:10:40.865Z,997.7